Nearby METAR Reports

 

KOXC - Oxford/Waterbury, Connecticut, USA
Distance from station: SE 8mi, 12km
Updated: Mon, 15-Sep-2014 10:35pm EDT
Clear
Clear
 Wind from calm
Wind: Calm
Temperature: 52°F , 11°C
Dew Point: 43°F , 6°C
Humidity: 72%
Barometer: 30.13 inHg , 1020.3 hPa
Clouds: Clear
Visibility: 10 miles , 16 km
2014/09/16 02:35 KOXC 160235Z 00000KT 10SM CLR 11/06 A3013 RMK AO1
KDXR - Danbury, Connecticut, USA
Distance from station: SW 19mi, 30km
Updated: Mon, 15-Sep-2014 9:53pm EDT
Clear
Clear
 Wind from calm
Wind: Calm
Temperature: 54°F , 12°C
Dew Point: 48°F , 9°C
Humidity: 82%
Barometer: 30.12 inHg , 1020 hPa
Clouds: Clear
Visibility: 10 miles , 16 km
2014/09/16 01:53 KDXR 160153Z 00000KT 10SM CLR 12/09 A3012 RMK AO2 SLP198 T01220094
 
KMMK - Meriden, Connecticut, USA
Distance from station: E 20mi, 33km
Updated: Mon, 15-Sep-2014 9:53pm EDT
Clear
Clear
 Wind from calm
Wind: Calm
Temperature: 52°F , 11°C
Dew Point: 46°F , 8°C
Humidity: 82%
Barometer: 30.11 inHg , 1019.6 hPa
Clouds: Clear
Visibility: 10 miles , 16 km
2014/09/16 01:53 KMMK 160153Z AUTO 00000KT 10SM CLR 11/08 A3011 RMK AO2 SLP194 T01110083 TSNO
KBDR - Bridgeport, Connecticut, USA
Distance from station: S 27mi, 44km
Updated: Mon, 15-Sep-2014 9:52pm EDT
Clear
Clear
 Wind from S
Wind: S 7 mph , 11 km/h
Temperature: 64°F , 18°C
Dew Point: 52°F , 11°C
Humidity: 64%
Barometer: 30.10 inHg , 1019.3 hPa
Clouds: Clear
Visibility: 10 miles , 16 km
2014/09/16 01:52 KBDR 160152Z AUTO 19006KT 10SM CLR 18/11 A3010 RMK AO2 SLP192 T01830106
 
KHVN - New Haven/Tweed, Connecticut, USA
Distance from station: SE 27mi, 44km
Updated: Mon, 15-Sep-2014 9:53pm EDT
Clear
Clear
 Wind from calm
Wind: Calm
Temperature: 57°F , 14°C
Dew Point: 50°F , 10°C
Humidity: 77%
Barometer: 30.10 inHg , 1019.3 hPa
Clouds: Clear
Visibility: 10 miles , 16 km
2014/09/16 01:53 KHVN 160153Z AUTO 00000KT 10SM CLR 14/10 A3010 RMK AO2 SLP193 T01440100
KHFD - Hartford/Brainar, Connecticut, USA
Distance from station: ENE 32mi, 52km
Updated: Mon, 15-Sep-2014 9:53pm EDT
Clear
Clear
 Wind from SE
Wind: SE 10 mph , 17 km/h
Temperature: 55°F , 13°C
Dew Point: 52°F , 11°C
Humidity: 88%
Barometer: 30.10 inHg , 1019.3 hPa
Clouds: Clear
Visibility: 10 miles , 16 km
2014/09/16 01:53 KHFD 160153Z 14009KT 10SM CLR 13/11 A3010 RMK AO2 SLP191 T01280106
 
KPOU - Poughkeepsie, New York, USA
Distance from station: W 35mi, 56km
Updated: Mon, 15-Sep-2014 9:53pm EDT
Clear
Clear
 Wind from calm
Wind: Calm
Temperature: 54°F , 12°C
Dew Point: 48°F , 9°C
Humidity: 82%
Barometer: 30.09 inHg , 1019 hPa
Clouds: Clear
Visibility: 10 miles , 16 km
2014/09/16 01:53 KPOU 160153Z AUTO 00000KT 10SM CLR 12/09 A3009 RMK AO2 SLP186 T01220094
KBDL - Windsor Locks, Connecticut, USA
Distance from station: NE 38mi, 62km
Updated: Mon, 15-Sep-2014 10:51pm EDT
Mostly cloudy
Mostly cloudy
 Wind from calm
Wind: Calm
Temperature: 54°F , 12°C
Dew Point: 46°F , 8°C
Humidity: 77%
Barometer: 30.10 inHg , 1019.3 hPa
Clouds: Mostly cloudy
Visibility: 10 miles , 16 km
Cloud details: Mostly cloudy 18000 ft
Mostly cloudy 22000 ft
2014/09/16 02:51 KBDL 160251Z 00000KT 10SM BKN180 BKN220 12/08 A3010 RMK AO2 SLP191 T01170083 55007
 
KSNC - Chester, Connecticut, USA
Distance from station: ESE 39mi, 63km
Updated: Mon, 15-Sep-2014 10:35pm EDT
Clear
Clear
 Wind from calm
Wind: Calm
Temperature: 54°F , 12°C
Dew Point: 48°F , 9°C
Humidity: 82%
Barometer: 30.11 inHg , 1019.6 hPa
Clouds: Clear
Visibility: 10 miles , 16 km
2014/09/16 02:35 KSNC 160235Z AUTO 00000KT 10SM CLR 12/09 A3011 RMK AO2
KHPN - White Plains, New York, USA
Distance from station: SW 42mi, 67km
Updated: Mon, 15-Sep-2014 9:56pm EDT
Clear
Clear
 Wind from calm
Wind: Calm
Temperature: 57°F , 14°C
Dew Point: 48°F , 9°C
Humidity: 72%
Barometer: 30.09 inHg , 1019 hPa
Clouds: Clear
Visibility: 10 miles , 16 km
2014/09/16 01:56 KHPN 160156Z 00000KT 10SM CLR 14/09 A3009 RMK AO2 SLP189 T01440094
 
KSWF - Newburgh/Stewart, New York, USA
Distance from station: W 45mi, 72km
Updated: Mon, 15-Sep-2014 10:45pm EDT
Clear
Clear
 Wind from calm
Wind: Calm
Clouds: Clear
Visibility: 10 miles , 16 km
2014/09/16 02:45 KSWF 160245Z 00000KT 10SM SKC SKC 12/10 A3010
KBAF - Westfield, Massachusetts, USA
Distance from station: NNE 50mi, 80km
Updated: Mon, 15-Sep-2014 9:53pm EDT
Clear
Clear
 Wind from calm
Wind: Calm
Temperature: 54°F , 12°C
Dew Point: 48°F , 9°C
Humidity: 82%
Barometer: 30.11 inHg , 1019.6 hPa
Clouds: Clear
Visibility: 10 miles , 16 km
2014/09/16 01:53 KBAF 160153Z 00000KT 10SM CLR 12/09 A3011 RMK AO2 SLP196 T01220094